FYOW

Otjiwarongo Airport

Otjiwarongo, Namibia
METAR FYOW 161000Z AUTO 07006KT //// // ////// 32/05 Q1018
Observed Flight Rules
Dec-16 @ 10:00 UTC (an hour ago)
Wind
70° at 6 knots
Temperatures Readings
Current 32°C / 90°F
Dewpoint 5°C / 41°F
Humidity 18%
Altimeter 30.06" Hg
Pressure 1018 hPa
Elevation 1481
METAR FYOW 161000Z AUTO 07006KT //// // ////// 32/05 Q1018
Observed Flight Rules
Dec-16 @ 10:00 UTC
(an hour ago)
Wind
70° at 6 knots
Temperature Dewpoint
32°C / 90°F 5°C / 41°F
Humidity Altimeter Pressure
18% 30.06" Hg 1018 hPa